Esmeralda — CCES — position and weather

sailwx.info

Track history (hours):
 
Tides and Currents Weather Stations Pressure Air Temp Water Temp Dewpoint Dewpoint Depression Visibility Wind Speed Wind Dir Waves Ship Positions

Esmeralda (Chile)

Last reported at 2018-Feb-21 23:08 UTC. Time now 2018-Feb-22 08:52 UTC.
Position S 33°02' W 071°37'.

Length 113 m; draft 7 m.

Type: Military. MMSI: 725019006.

Date/timePositionNaut miles runAvg speedWind from/ knotsBaromVisibWave heightAir tempDewpointWater temp
2018-Feb-21 23:08S 33°02' W 071°37'0 0.0
2018-Feb-21 22:56S 33°02' W 071°37'0 0.0
2018-Feb-21 22:23S 33°02' W 071°37'0 0.0
2018-Feb-21 21:53S 33°02' W 071°37'0 0.0
2018-Feb-21 21:17S 33°02' W 071°37'0 0.0
2018-Feb-21 20:59S 33°02' W 071°37'0 0.0
2018-Feb-21 20:11S 33°02' W 071°37'0 0.0
2018-Feb-21 19:59S 33°02' W 071°37'0 0.0
2018-Feb-21 19:29S 33°02' W 071°37'0 0.0
2018-Feb-21 19:00S 33°02' W 071°37'0 0.0
2018-Feb-21 18:11S 33°02' W 071°37'0 0.0
2018-Feb-21 17:59S 33°02' W 071°37'0 0.0
2018-Feb-21 17:14S 33°02' W 071°37'0 0.0
2018-Feb-21 16:50S 33°02' W 071°37'0 0.0
2018-Feb-21 16:26S 33°02' W 071°37'0 0.0
2018-Feb-21 15:59S 33°02' W 071°37'0 0.0
2018-Feb-21 15:29S 33°02' W 071°37'0 0.0
2018-Feb-21 14:56S 33°02' W 071°37'0 0.0
2018-Feb-21 14:26S 33°02' W 071°37'0 0.0
2018-Feb-21 13:56S 33°02' W 071°37'0 0.0
2018-Feb-21 13:26S 33°02' W 071°37'0 0.0
2018-Feb-21 12:50S 33°02' W 071°37'5 0.4
2018-Feb-20 22:17S 32°57' W 071°34'2 6.1
2018-Feb-20 22:01S 32°56' W 071°36'1 0.9
2018-Feb-20 21:16S 32°55' W 071°35'1 4.5
2018-Feb-20 21:00S 32°56' W 071°35'2 2.6
2018-Feb-20 20:21S 32°58' W 071°34'3 2.3
2018-Feb-20 18:58S 33°01' W 071°35'  
2018-Feb-16 19:18S 33°02' W 071°37'1 5.1
2018-Feb-16 19:00S 33°01' W 071°36'2 4.3
2018-Feb-16 18:29S 32°59' W 071°36'1 2.2
2018-Feb-16 18:00S 32°60' W 071°36'1 1.1
2018-Feb-16 16:55S 32°59' W 071°37'0 0.9
2018-Feb-16 16:28S 32°59' W 071°38'4 9.3
2018-Feb-16 16:00S 32°55' W 071°39'3 4.1
2018-Feb-16 15:22S 32°53' W 071°41'1 3.0
2018-Feb-16 15:01S 32°53' W 071°41'3 4.3
2018-Feb-16 14:13S 32°56' W 071°39'2 8.6
2018-Feb-16 14:00S 32°57' W 071°37'3 4.9
2018-Feb-16 13:25S 32°59' W 071°35'1 2.3
2018-Feb-16 12:51S 33°01' W 071°35'2 0.1
2018-Feb-14 20:03S 33°02' W 071°37'0 2.1
2018-Feb-14 19:58S 33°02' W 071°37'3 5.5
2018-Feb-14 19:29S 33°01' W 071°34'4 7.2
2018-Feb-14 19:00S 32°57' W 071°35'0 0.8
2018-Feb-14 18:31S 32°57' W 071°35'2 3.9
2018-Feb-14 18:01S 32°56' W 071°37'3 5.5
2018-Feb-14 17:31S 32°54' W 071°39'3 5.5
2018-Feb-14 17:00S 32°52' W 071°41'2 3.8
2018-Feb-14 16:30S 32°51' W 071°42'1 2.4
2018-Feb-14 16:00S 32°49' W 071°42'5 9.2
2018-Feb-14 15:30S 32°54' W 071°41'4 7.6
2018-Feb-14 14:59S 32°57' W 071°39'2 3.3
2018-Feb-14 14:31S 32°56' W 071°40'2 3.9
2018-Feb-14 14:00S 32°55' W 071°38'3 6.7
2018-Feb-14 13:30S 32°58' W 071°35'3 5.7
2018-Feb-14 13:00S 33°01' W 071°35'2 1.0
2018-Feb-14 10:52S 33°02' W 071°37'0 0.0
2018-Feb-14 10:25S 33°02' W 071°37'  
Track history (hours):
 
Tides and Currents Weather Stations Pressure Air Temp Water Temp Dewpoint Dewpoint Depression Visibility Wind Speed Wind Dir Waves Ship Positions

Esmeralda (Chile)

Last reported at 2018-Feb-21 23:08 UTC. Time now 2018-Feb-22 08:52 UTC.
Position S 33°02' W 071°37'.

Length 113 m; draft 7 m.

Type: Military. MMSI: 725019006.

Date/timePositionNaut miles runAvg speedWind from/ knotsBaromVisibWave heightAir tempDewpointWater temp
2018-Feb-21 23:08S 33°02' W 071°37'0 0.0
2018-Feb-21 22:56S 33°02' W 071°37'0 0.0
2018-Feb-21 22:23S 33°02' W 071°37'0 0.0
2018-Feb-21 21:53S 33°02' W 071°37'0 0.0
2018-Feb-21 21:17S 33°02' W 071°37'0 0.0
2018-Feb-21 20:59S 33°02' W 071°37'0 0.0
2018-Feb-21 20:11S 33°02' W 071°37'0 0.0
2018-Feb-21 19:59S 33°02' W 071°37'0 0.0
2018-Feb-21 19:29S 33°02' W 071°37'0 0.0
2018-Feb-21 19:00S 33°02' W 071°37'0 0.0
2018-Feb-21 18:11S 33°02' W 071°37'0 0.0
2018-Feb-21 17:59S 33°02' W 071°37'0 0.0
2018-Feb-21 17:14S 33°02' W 071°37'0 0.0
2018-Feb-21 16:50S 33°02' W 071°37'0 0.0
2018-Feb-21 16:26S 33°02' W 071°37'0 0.0
2018-Feb-21 15:59S 33°02' W 071°37'0 0.0
2018-Feb-21 15:29S 33°02' W 071°37'0 0.0
2018-Feb-21 14:56S 33°02' W 071°37'0 0.0
2018-Feb-21 14:26S 33°02' W 071°37'0 0.0
2018-Feb-21 13:56S 33°02' W 071°37'0 0.0
2018-Feb-21 13:26S 33°02' W 071°37'0 0.0
2018-Feb-21 12:50S 33°02' W 071°37'5 0.4
2018-Feb-20 22:17S 32°57' W 071°34'2 6.1
2018-Feb-20 22:01S 32°56' W 071°36'1 0.9
2018-Feb-20 21:16S 32°55' W 071°35'1 4.5
2018-Feb-20 21:00S 32°56' W 071°35'2 2.6
2018-Feb-20 20:21S 32°58' W 071°34'3 2.3
2018-Feb-20 18:58S 33°01' W 071°35'  
2018-Feb-16 19:18S 33°02' W 071°37'1 5.1
2018-Feb-16 19:00S 33°01' W 071°36'2 4.3
2018-Feb-16 18:29S 32°59' W 071°36'1 2.2
2018-Feb-16 18:00S 32°60' W 071°36'1 1.1
2018-Feb-16 16:55S 32°59' W 071°37'0 0.9
2018-Feb-16 16:28S 32°59' W 071°38'4 9.3
2018-Feb-16 16:00S 32°55' W 071°39'3 4.1
2018-Feb-16 15:22S 32°53' W 071°41'1 3.0
2018-Feb-16 15:01S 32°53' W 071°41'3 4.3
2018-Feb-16 14:13S 32°56' W 071°39'2 8.6
2018-Feb-16 14:00S 32°57' W 071°37'3 4.9
2018-Feb-16 13:25S 32°59' W 071°35'1 2.3
2018-Feb-16 12:51S 33°01' W 071°35'2 0.1
2018-Feb-14 20:03S 33°02' W 071°37'0 2.1
2018-Feb-14 19:58S 33°02' W 071°37'3 5.5
2018-Feb-14 19:29S 33°01' W 071°34'4 7.2
2018-Feb-14 19:00S 32°57' W 071°35'0 0.8
2018-Feb-14 18:31S 32°57' W 071°35'2 3.9
2018-Feb-14 18:01S 32°56' W 071°37'3 5.5
2018-Feb-14 17:31S 32°54' W 071°39'3 5.5
2018-Feb-14 17:00S 32°52' W 071°41'2 3.8
2018-Feb-14 16:30S 32°51' W 071°42'1 2.4
2018-Feb-14 16:00S 32°49' W 071°42'5 9.2
2018-Feb-14 15:30S 32°54' W 071°41'4 7.6
2018-Feb-14 14:59S 32°57' W 071°39'2 3.3
2018-Feb-14 14:31S 32°56' W 071°40'2 3.9
2018-Feb-14 14:00S 32°55' W 071°38'3 6.7
2018-Feb-14 13:30S 32°58' W 071°35'3 5.7
2018-Feb-14 13:00S 33°01' W 071°35'2 1.0
2018-Feb-14 10:52S 33°02' W 071°37'0 0.0
2018-Feb-14 10:25S 33°02' W 071°37'  

Dump ship's entire track history